createdAt,value
2017-12-02T00:01:17.825Z,98524.17
2017-12-02T00:03:44.870Z,98521.80
2017-12-02T00:06:11.238Z,98532.33
2017-12-02T00:08:37.637Z,98533.65
2017-12-02T00:11:04.092Z,98530.59
2017-12-02T00:13:30.405Z,98541.67
2017-12-02T00:15:56.839Z,98531.78
2017-12-02T00:18:23.274Z,98520.83
2017-12-02T00:20:50.425Z,98521.61
2017-12-02T00:23:16.758Z,98525.50
2017-12-02T00:25:43.193Z,98514.39
2017-12-02T00:28:09.629Z,98508.48
2017-12-02T00:30:35.994Z,98513.58
2017-12-02T00:33:02.367Z,98521.48
2017-12-02T00:35:28.810Z,98518.83
2017-12-02T00:37:55.981Z,98515.58
2017-12-02T00:40:22.339Z,98517.47
2017-12-02T00:42:48.746Z,98515.58
2017-12-02T00:45:15.181Z,98522.15
2017-12-02T00:47:41.616Z,98514.87
2017-12-02T00:50:07.949Z,98519.44
2017-12-02T00:52:34.486Z,98515.75
2017-12-02T00:55:01.565Z,98516.33
2017-12-02T00:57:27.975Z,98516.45
2017-12-02T00:59:54.405Z,98506.33
2017-12-02T01:02:20.769Z,98526.23
2017-12-02T01:04:47.100Z,98530.50
2017-12-02T01:07:13.417Z,98527.20
2017-12-02T01:09:39.835Z,98545.53
2017-12-02T01:12:07.087Z,98538.87
2017-12-02T01:14:33.453Z,98539.08
2017-12-02T01:16:59.854Z,98536.92
2017-12-02T01:19:26.292Z,98535.08
2017-12-02T01:21:52.826Z,98517.00
2017-12-02T01:24:19.261Z,98501.31
2017-12-02T01:26:45.629Z,98506.16
2017-12-02T01:29:12.847Z,98517.26
2017-12-02T01:31:39.282Z,98515.00
2017-12-02T01:34:05.717Z,98516.73
2017-12-02T01:36:32.150Z,98511.92
2017-12-02T01:38:58.586Z,98513.26
2017-12-02T01:41:25.020Z,98505.21
2017-12-02T01:43:51.456Z,98490.30
2017-12-02T01:46:18.641Z,98481.49
2017-12-02T01:48:45.000Z,98500.08
2017-12-02T01:51:11.405Z,98488.81
2017-12-02T01:53:37.809Z,98503.30
2017-12-02T01:56:04.247Z,98508.34
2017-12-02T01:58:30.678Z,98505.55
2017-12-02T02:00:57.009Z,98496.80
2017-12-02T02:03:24.194Z,98489.59
2017-12-02T02:05:50.595Z,98492.63
2017-12-02T02:08:16.962Z,98490.89
2017-12-02T02:10:43.400Z,98487.34
2017-12-02T02:13:09.729Z,98520.34
2017-12-02T02:15:36.129Z,98521.02
2017-12-02T02:18:02.564Z,98519.16
2017-12-02T02:20:29.715Z,98527.42
2017-12-02T02:22:56.219Z,98531.69
2017-12-02T02:25:22.658Z,98532.64
2017-12-02T02:27:49.122Z,98529.95
2017-12-02T02:30:15.556Z,98529.66
2017-12-02T02:32:41.991Z,98538.40
2017-12-02T02:35:08.425Z,98535.74
2017-12-02T02:37:35.706Z,98548.20
2017-12-02T02:40:02.114Z,98553.30
2017-12-02T02:42:28.548Z,98548.20
2017-12-02T02:44:54.983Z,98557.16
2017-12-02T02:47:21.390Z,98555.19
2017-12-02T02:49:47.852Z,98540.99
2017-12-02T02:52:14.222Z,98553.59
2017-12-02T02:54:41.389Z,98552.50
2017-12-02T02:57:07.731Z,98548.34
2017-12-02T02:59:34.102Z,98562.24
2017-12-02T03:02:00.537Z,98564.77
2017-12-02T03:04:26.975Z,98554.70
2017-12-02T03:06:53.409Z,98549.63
2017-12-02T03:09:19.773Z,98554.59
2017-12-02T03:11:46.993Z,98558.43
2017-12-02T03:14:13.357Z,98562.23
2017-12-02T03:16:39.759Z,98565.73
2017-12-02T03:19:06.090Z,98577.14
2017-12-02T03:21:32.530Z,98569.22
2017-12-02T03:23:58.963Z,98576.59
2017-12-02T03:26:25.398Z,98576.17
2017-12-02T03:28:52.553Z,98576.58
2017-12-02T03:31:18.987Z,98577.66
2017-12-02T03:33:45.440Z,98572.17
2017-12-02T03:36:11.785Z,98574.45
2017-12-02T03:38:38.185Z,98584.94
2017-12-02T03:41:04.619Z,98592.40
2017-12-02T03:43:31.052Z,98594.91
2017-12-02T03:45:58.105Z,98597.08
2017-12-02T03:48:24.536Z,98597.89
2017-12-02T03:50:50.970Z,98607.70
2017-12-02T03:53:17.407Z,98603.53
2017-12-02T03:55:43.839Z,98616.23
2017-12-02T03:58:10.275Z,98607.95
2017-12-02T04:00:36.812Z,98601.53
2017-12-02T04:03:03.964Z,98590.98
2017-12-02T04:05:30.397Z,98596.45
2017-12-02T04:07:56.833Z,98603.27
2017-12-02T04:10:23.268Z,98604.20
2017-12-02T04:12:49.599Z,98609.84
2017-12-02T04:15:16.035Z,98595.09
2017-12-02T04:17:42.492Z,98589.93
2017-12-02T04:20:09.722Z,98581.09
2017-12-02T04:22:36.157Z,98573.45
2017-12-02T04:25:02.593Z,98580.80
2017-12-02T04:27:29.045Z,98586.79
2017-12-02T04:29:55.462Z,98584.28
2017-12-02T04:32:21.896Z,98592.40
2017-12-02T04:34:48.228Z,98589.44
2017-12-02T04:37:15.329Z,98585.94
2017-12-02T04:39:41.722Z,98580.05
2017-12-02T04:42:08.043Z,98581.23
2017-12-02T04:44:34.483Z,98577.63
2017-12-02T04:47:00.912Z,98584.31
2017-12-02T04:49:27.347Z,98592.17
2017-12-02T04:51:53.782Z,98596.98
2017-12-02T04:54:20.874Z,98600.58
2017-12-02T04:56:47.368Z,98585.54
2017-12-02T04:59:13.733Z,98619.77
2017-12-02T05:01:40.072Z,98635.81
2017-12-02T05:04:06.467Z,98645.71
2017-12-02T05:06:32.903Z,98641.72
2017-12-02T05:08:59.338Z,98647.22
2017-12-02T05:11:26.477Z,98640.27
2017-12-02T05:13:52.820Z,98634.52
2017-12-02T05:16:19.255Z,98629.44
2017-12-02T05:18:45.620Z,98626.22
2017-12-02T05:21:12.021Z,98624.33
2017-12-02T05:23:38.456Z,98623.16
2017-12-02T05:26:04.817Z,98626.24
2017-12-02T05:28:32.024Z,98625.13
2017-12-02T05:30:58.476Z,98619.92
2017-12-02T05:33:24.912Z,98621.55
2017-12-02T05:35:51.348Z,98671.20
2017-12-02T05:38:17.780Z,98690.48
2017-12-02T05:40:44.215Z,98705.73
2017-12-02T05:43:10.651Z,98697.44
2017-12-02T05:45:37.833Z,98705.87
2017-12-02T05:48:04.234Z,98707.33
2017-12-02T05:50:30.671Z,98702.77
2017-12-02T05:52:57.106Z,98705.47
2017-12-02T05:55:23.539Z,98717.01
2017-12-02T05:57:49.973Z,98721.53
2017-12-02T06:00:16.408Z,98724.77
2017-12-02T06:02:43.560Z,98711.79
2017-12-02T06:05:09.995Z,98714.45
2017-12-02T06:07:36.449Z,98716.11
2017-12-02T06:10:02.866Z,98727.18
2017-12-02T06:12:29.402Z,98718.53
2017-12-02T06:14:55.835Z,98722.53
2017-12-02T06:17:22.270Z,98728.55
2017-12-02T06:19:49.422Z,98727.11
2017-12-02T06:22:15.858Z,98721.75
2017-12-02T06:24:42.290Z,98730.17
2017-12-02T06:27:08.725Z,98731.91
2017-12-02T06:29:35.162Z,98722.53
2017-12-02T06:32:01.594Z,98730.02
2017-12-02T06:34:27.911Z,98729.98
2017-12-02T06:36:55.078Z,98714.20
2017-12-02T06:39:21.513Z,98709.52
2017-12-02T06:41:47.947Z,98706.58
2017-12-02T06:44:14.386Z,98740.80
2017-12-02T06:46:41.021Z,98757.74
2017-12-02T06:49:07.456Z,98769.28
2017-12-02T06:51:33.788Z,98775.99
2017-12-02T06:54:00.975Z,98780.29
2017-12-02T06:56:27.376Z,98780.16
2017-12-02T06:58:53.811Z,98772.16
2017-12-02T07:01:20.142Z,98802.36
2017-12-02T07:03:46.581Z,98809.61
2017-12-02T07:06:13.010Z,98815.89
2017-12-02T07:08:39.650Z,98821.66
2017-12-02T07:11:06.597Z,98820.43
2017-12-02T07:13:33.031Z,98819.36
2017-12-02T07:15:59.491Z,98821.94
2017-12-02T07:18:26.419Z,98829.16
2017-12-02T07:20:53.159Z,98832.66
2017-12-02T07:23:19.833Z,98837.73
2017-12-02T07:33:21.274Z,98852.84
2017-12-02T07:35:47.744Z,98860.09
2017-12-02T07:38:14.102Z,98840.93
2017-12-02T07:40:40.810Z,98837.98
2017-12-02T07:43:07.244Z,98839.57
2017-12-02T07:45:33.783Z,98831.38
2017-12-02T07:48:00.319Z,98836.31
2017-12-02T07:50:26.959Z,98837.94
2017-12-02T07:52:53.294Z,98844.05
2017-12-02T07:55:19.725Z,98860.92
2017-12-02T08:07:52.072Z,98862.85
2017-12-02T08:10:18.506Z,98843.64
2017-12-02T08:12:44.873Z,98876.52
2017-12-02T08:15:11.419Z,98875.53
2017-12-02T08:17:38.015Z,98881.00
2017-12-02T08:20:04.561Z,98878.56
2017-12-02T08:22:30.989Z,98880.43
2017-12-02T08:24:57.645Z,98888.05
2017-12-02T08:27:24.063Z,98903.77
2017-12-02T08:29:50.803Z,98896.34
2017-12-02T08:32:17.443Z,98894.97
2017-12-02T08:34:44.204Z,98899.88
2017-12-02T08:37:11.032Z,98911.70
2017-12-02T08:39:37.466Z,98920.95
2017-12-02T08:42:04.002Z,98906.92
2017-12-02T08:44:30.640Z,98893.97
2017-12-02T08:46:57.181Z,98899.05
2017-12-02T08:49:23.820Z,98885.99
2017-12-02T08:51:50.305Z,98869.22
2017-12-02T08:54:16.621Z,98871.52
2017-12-02T08:56:43.057Z,98874.05
2017-12-02T08:59:09.626Z,98874.39
2017-12-02T09:01:36.028Z,98878.42
2017-12-02T09:04:02.526Z,98861.34
2017-12-02T09:06:29.719Z,98858.98
2017-12-02T09:08:56.045Z,98833.33
2017-12-02T09:11:22.414Z,98822.92
2017-12-02T09:13:49.288Z,98851.82
2017-12-02T09:16:15.830Z,98864.25
2017-12-02T09:18:42.468Z,98883.72
2017-12-02T09:21:09.104Z,98890.27
2017-12-02T09:23:35.485Z,98886.57
2017-12-02T09:26:02.010Z,98876.39
2017-12-02T09:28:28.684Z,98859.92
2017-12-02T09:30:55.047Z,98874.55
2017-12-02T09:33:21.444Z,98889.02
2017-12-02T09:35:47.916Z,98896.37
2017-12-02T09:38:14.351Z,98902.40
2017-12-02T09:40:40.786Z,98899.69
2017-12-02T09:43:07.344Z,98902.84
2017-12-02T09:45:33.860Z,98886.16
2017-12-02T09:48:00.704Z,98874.00
2017-12-02T09:50:27.158Z,98877.79
2017-12-02T09:52:53.505Z,98866.36
2017-12-02T09:55:20.724Z,98865.37
2017-12-02T09:57:47.261Z,98885.19
2017-12-02T10:00:13.942Z,98875.88
2017-12-02T10:02:42.846Z,98894.76
2017-12-02T10:05:09.693Z,98902.80
2017-12-02T10:07:36.175Z,98907.48
2017-12-02T10:10:03.465Z,98912.89
2017-12-02T10:12:31.092Z,98908.64
2017-12-02T10:14:57.648Z,98890.38
2017-12-02T10:17:25.681Z,98883.38
2017-12-02T10:19:52.816Z,98883.42
2017-12-02T10:22:23.648Z,98868.55
2017-12-02T10:24:50.126Z,98845.86
2017-12-02T10:27:16.689Z,98870.12
2017-12-02T10:29:43.817Z,98869.20
2017-12-02T10:32:10.250Z,98887.62
2017-12-02T10:34:37.786Z,98903.40
2017-12-02T10:37:04.347Z,98920.37
2017-12-02T10:39:31.423Z,98884.95
2017-12-02T10:41:58.761Z,98916.14
2017-12-02T10:44:25.666Z,98911.59
2017-12-02T10:46:52.549Z,98895.02
2017-12-02T10:49:19.415Z,98895.96
2017-12-02T10:51:46.101Z,98896.61
2017-12-02T10:54:12.974Z,98913.93
2017-12-02T10:56:39.441Z,98917.84
2017-12-02T10:59:05.809Z,98922.28
2017-12-02T11:01:32.177Z,98939.63
2017-12-02T11:03:58.509Z,98957.66
2017-12-02T11:06:25.250Z,98964.89
2017-12-02T11:08:51.684Z,98945.80
2017-12-02T11:11:18.222Z,98941.16
2017-12-02T11:13:45.475Z,98943.86
2017-12-02T11:16:11.910Z,98955.17
2017-12-02T11:18:38.345Z,98965.08
2017-12-02T11:21:05.277Z,98968.99
2017-12-02T11:23:31.794Z,98976.31
2017-12-02T11:25:58.365Z,98987.03
2017-12-02T11:28:25.241Z,98987.71
2017-12-02T11:30:51.644Z,98990.52
2017-12-02T11:33:18.079Z,98989.58
2017-12-02T11:35:45.169Z,98991.34
2017-12-02T11:38:11.505Z,98993.20
2017-12-02T11:40:37.964Z,99011.73
2017-12-02T11:43:04.466Z,99021.22
2017-12-02T11:45:30.949Z,99034.92
2017-12-02T11:47:57.367Z,99031.73
2017-12-02T11:50:23.736Z,99036.14
2017-12-02T11:52:50.170Z,99022.22
2017-12-02T11:55:16.707Z,99037.37
2017-12-02T11:57:43.141Z,99038.44
2017-12-02T12:00:09.475Z,99038.84
2017-12-02T12:02:35.847Z,99036.02
2017-12-02T12:05:02.345Z,99044.98
2017-12-02T12:07:28.880Z,99040.18
2017-12-02T12:09:55.316Z,99044.72
2017-12-02T12:12:22.175Z,99046.61
2017-12-02T12:14:48.594Z,99055.70
2017-12-02T12:17:14.957Z,99047.77
2017-12-02T12:19:41.501Z,99051.41
2017-12-02T12:22:07.849Z,99066.39
2017-12-02T12:24:34.336Z,99052.59
2017-12-02T12:27:00.869Z,99045.21
2017-12-02T12:29:27.305Z,99047.80
2017-12-02T12:31:54.148Z,99032.27
2017-12-02T12:34:20.481Z,99048.72
2017-12-02T12:36:46.953Z,99054.98
2017-12-02T12:39:13.492Z,99054.71
2017-12-02T12:41:39.887Z,99050.82
2017-12-02T12:44:06.343Z,99060.89
2017-12-02T12:46:33.294Z,99060.74
2017-12-02T12:49:00.094Z,99067.30
2017-12-02T12:51:26.547Z,99069.30
2017-12-02T12:53:52.982Z,99070.23
2017-12-02T12:56:19.552Z,99071.97
2017-12-02T12:58:46.568Z,99061.80
2017-12-02T13:01:13.004Z,99059.89
2017-12-02T13:03:39.374Z,99057.11
2017-12-02T13:06:06.076Z,99059.00
2017-12-02T13:08:32.530Z,99055.52
2017-12-02T13:10:58.945Z,99057.40
2017-12-02T13:13:25.277Z,99061.66
2017-12-02T13:15:51.712Z,99064.08
2017-12-02T13:18:18.352Z,99050.70
2017-12-02T13:20:44.786Z,99026.74
2017-12-02T13:23:11.222Z,99033.18
2017-12-02T13:25:37.656Z,99061.30
2017-12-02T13:28:04.110Z,99061.71
2017-12-02T13:30:30.627Z,99075.38
2017-12-02T13:32:57.061Z,99059.31
2017-12-02T13:35:23.434Z,99055.70
2017-12-02T13:37:49.829Z,99049.69
2017-12-02T13:40:16.656Z,99056.78
2017-12-02T13:42:43.213Z,99065.75
2017-12-02T13:45:09.672Z,99089.69
2017-12-02T13:47:36.080Z,99097.45
2017-12-02T13:50:02.458Z,99094.79
2017-12-02T13:52:29.497Z,99095.06
2017-12-02T13:54:55.901Z,99098.56
2017-12-02T13:57:22.350Z,99103.92
2017-12-02T13:59:48.869Z,99108.61
2017-12-02T14:02:15.201Z,99116.49
2017-12-02T14:04:41.637Z,99126.69
2017-12-02T14:07:08.683Z,99134.06
2017-12-02T14:09:35.234Z,99129.08
2017-12-02T14:12:01.553Z,99123.03
2017-12-02T14:14:28.472Z,99110.86
2017-12-02T14:16:54.933Z,99116.50
2017-12-02T14:19:21.374Z,99126.13
2017-12-02T14:21:48.109Z,99136.70
2017-12-02T14:24:14.662Z,99145.39
2017-12-02T14:26:41.158Z,99130.90
2017-12-02T14:29:07.601Z,99130.89
2017-12-02T14:31:34.369Z,99135.55
2017-12-02T14:34:01.000Z,99134.11
2017-12-02T14:36:27.456Z,99124.34
2017-12-02T14:38:53.890Z,99131.56
2017-12-02T14:41:20.304Z,99124.72
2017-12-02T14:43:47.609Z,99160.45
2017-12-02T14:46:14.402Z,99154.16
2017-12-02T14:48:40.777Z,99150.00
2017-12-02T14:51:07.169Z,99138.91
2017-12-02T14:53:34.045Z,99132.50
2017-12-02T14:56:00.377Z,99124.59
2017-12-02T14:58:26.782Z,99122.30
2017-12-02T15:00:53.223Z,99120.41
2017-12-02T15:03:19.650Z,99116.37
2017-12-02T15:05:46.493Z,99128.70
2017-12-02T15:08:13.030Z,99127.35
2017-12-02T15:10:39.775Z,99134.83
2017-12-02T15:13:06.584Z,99125.09
2017-12-02T15:15:33.050Z,99122.54
2017-12-02T15:17:59.418Z,99128.58
2017-12-02T15:20:25.873Z,99138.09
2017-12-02T15:22:52.661Z,99148.91
2017-12-02T15:25:19.096Z,99153.31
2017-12-02T15:27:45.465Z,99161.47
2017-12-02T15:30:11.863Z,99163.48
2017-12-02T15:32:38.311Z,99158.91
2017-12-02T15:35:04.747Z,99153.53
2017-12-02T15:37:31.884Z,99160.39
2017-12-02T15:39:58.421Z,99159.87
2017-12-02T15:42:24.856Z,99154.48
2017-12-02T15:44:51.192Z,99167.19
2017-12-02T15:47:17.622Z,99165.98
2017-12-02T15:49:44.017Z,99152.35
2017-12-02T15:52:10.491Z,99143.50
2017-12-02T15:54:36.926Z,99148.47
2017-12-02T15:57:03.361Z,99167.69
2017-12-02T15:59:29.786Z,99158.47
2017-12-02T16:01:56.127Z,99166.79
2017-12-02T16:04:22.563Z,99171.91
2017-12-02T16:06:49.098Z,99158.91
2017-12-02T16:09:15.401Z,99151.28
2017-12-02T16:11:41.866Z,99145.01
2017-12-02T16:14:08.300Z,99135.64
2017-12-02T16:16:34.736Z,99134.31
2017-12-02T16:19:01.171Z,99148.09
2017-12-02T16:21:27.605Z,99157.34
2017-12-02T16:23:54.051Z,99166.96
2017-12-02T16:26:21.296Z,99168.45
2017-12-02T16:28:47.830Z,99164.64
2017-12-02T16:31:14.193Z,99184.92
2017-12-02T16:33:40.680Z,99173.80
2017-12-02T16:36:07.119Z,99168.73
2017-12-02T16:38:33.568Z,99175.83
2017-12-02T16:41:00.003Z,99173.94
2017-12-02T16:43:27.245Z,99169.16
2017-12-02T16:45:53.692Z,99169.27
2017-12-02T16:48:20.126Z,99160.71
2017-12-02T16:50:46.586Z,99167.11
2017-12-02T16:53:12.995Z,99164.44
2017-12-02T16:55:39.450Z,99166.32
2017-12-02T16:58:05.881Z,99178.40
2017-12-02T17:00:33.049Z,99183.09
2017-12-02T17:02:59.381Z,99178.80
2017-12-02T17:05:25.782Z,99175.71
2017-12-02T17:07:52.293Z,99169.27
2017-12-02T17:10:18.651Z,99166.50
2017-12-02T17:12:45.085Z,99165.56
2017-12-02T17:15:11.394Z,99173.16
2017-12-02T17:17:38.671Z,99190.69
2017-12-02T17:20:05.130Z,99177.94
2017-12-02T17:22:31.541Z,99168.74
2017-12-02T17:24:57.909Z,99173.03
2017-12-02T17:27:24.308Z,99183.91
2017-12-02T17:29:50.845Z,99186.98
2017-12-02T17:32:17.280Z,99180.56
2017-12-02T17:34:44.329Z,99182.86
2017-12-02T17:37:10.763Z,99171.22
2017-12-02T17:39:37.096Z,99171.45
2017-12-02T17:42:03.531Z,99164.59
2017-12-02T17:44:29.862Z,99168.48
2017-12-02T17:46:56.297Z,99179.45
2017-12-02T17:49:22.838Z,99187.91
2017-12-02T17:51:49.986Z,99194.61
2017-12-02T17:54:16.422Z,99206.38
2017-12-02T17:56:42.789Z,99214.77
2017-12-02T17:59:09.192Z,99223.51
2017-12-02T18:01:35.621Z,99223.39
2017-12-02T18:04:02.160Z,99226.73
2017-12-02T18:06:28.594Z,99230.03
2017-12-02T18:08:55.782Z,99233.27
2017-12-02T18:11:22.281Z,99230.82
2017-12-02T18:13:48.717Z,99226.88
2017-12-02T18:16:15.151Z,99221.39
2017-12-02T18:18:41.586Z,99224.14
2017-12-02T18:21:08.023Z,99227.21
2017-12-02T18:23:34.455Z,99231.46
2017-12-02T18:26:01.709Z,99213.06
2017-12-02T18:28:28.040Z,99237.19
2017-12-02T18:30:54.474Z,99229.82
2017-12-02T18:33:20.844Z,99221.28
2017-12-02T18:35:47.344Z,99216.35
2017-12-02T18:38:13.780Z,99194.83
2017-12-02T18:40:40.151Z,99176.92
2017-12-02T18:43:07.366Z,99177.59
2017-12-02T18:45:33.801Z,99176.77
2017-12-02T18:48:00.235Z,99181.30
2017-12-02T18:50:26.676Z,99185.48
2017-12-02T18:52:53.105Z,99163.78
2017-12-02T18:55:19.470Z,99173.17
2017-12-02T18:57:45.841Z,99164.43
2017-12-02T19:00:13.125Z,99179.56
2017-12-02T19:02:39.559Z,99190.95
2017-12-02T19:05:05.997Z,99226.55
2017-12-02T19:07:32.432Z,99257.24
2017-12-02T19:09:58.864Z,99261.37
2017-12-02T19:12:25.300Z,99243.84
2017-12-02T19:14:51.746Z,99236.44
2017-12-02T19:17:18.918Z,99239.91
2017-12-02T19:19:45.424Z,99218.86
2017-12-02T19:22:11.856Z,99211.40
2017-12-02T19:24:38.296Z,99197.50
2017-12-02T19:27:04.724Z,99177.58
2017-12-02T19:29:31.160Z,99175.84
2017-12-02T19:31:57.595Z,99188.16
2017-12-02T19:34:24.849Z,99197.27
2017-12-02T19:36:51.183Z,99199.67
2017-12-02T19:39:17.634Z,99201.39
2017-12-02T19:41:44.049Z,99196.86
2017-12-02T19:44:10.519Z,99187.88
2017-12-02T19:46:36.855Z,99190.95
2017-12-02T19:49:03.182Z,99196.02
2017-12-02T19:51:30.402Z,99191.77
2017-12-02T19:53:56.838Z,99199.95
2017-12-02T19:56:23.271Z,99194.20
2017-12-02T19:58:49.706Z,99195.53
2017-12-02T20:01:16.038Z,99203.28
2017-12-02T20:03:42.473Z,99213.99
2017-12-02T20:06:08.999Z,99212.30
2017-12-02T20:08:36.059Z,99210.13
2017-12-02T20:11:02.531Z,99217.75
2017-12-02T20:13:28.930Z,99217.98
2017-12-02T20:15:55.363Z,99215.72
2017-12-02T20:18:21.797Z,99215.72
2017-12-02T20:20:48.233Z,99217.08
2017-12-02T20:23:14.667Z,99227.92
2017-12-02T20:25:41.818Z,99220.97
2017-12-02T20:28:08.253Z,99210.22
2017-12-02T20:30:34.644Z,99192.33
2017-12-02T20:33:01.062Z,99204.23
2017-12-02T20:35:27.386Z,99207.55
2017-12-02T20:37:53.722Z,99214.39
2017-12-02T20:40:20.078Z,99223.69
2017-12-02T20:42:47.270Z,99224.77
2017-12-02T20:45:13.704Z,99225.38
2017-12-02T20:47:40.139Z,99233.81
2017-12-02T20:50:06.576Z,99221.47
2017-12-02T20:52:33.008Z,99223.34
2017-12-02T20:54:59.382Z,99210.75
2017-12-02T20:57:25.774Z,99221.44
2017-12-02T20:59:53.032Z,99211.70
2017-12-02T21:02:19.544Z,99224.25
2017-12-02T21:04:45.939Z,99222.51
2017-12-02T21:07:12.333Z,99216.12
2017-12-02T21:09:38.767Z,99219.38
2017-12-02T21:12:05.202Z,99205.70
2017-12-02T21:14:31.639Z,99208.08
2017-12-02T21:16:58.788Z,99204.77
2017-12-02T21:19:25.223Z,99208.66
2017-12-02T21:21:51.760Z,99211.20
2017-12-02T21:24:18.092Z,99198.23
2017-12-02T21:26:44.527Z,99199.70
2017-12-02T21:29:10.961Z,99199.14
2017-12-02T21:31:37.396Z,99208.22
2017-12-02T21:34:04.649Z,99200.40
2017-12-02T21:36:31.084Z,99181.61
2017-12-02T21:38:57.406Z,99190.72
2017-12-02T21:41:23.870Z,99197.41
2017-12-02T21:43:50.286Z,99211.87
2017-12-02T21:46:16.720Z,99210.30
2017-12-02T21:48:43.154Z,99210.70
2017-12-02T21:51:10.287Z,99204.92
2017-12-02T21:53:36.843Z,99203.43
2017-12-02T21:56:03.278Z,99206.78
2017-12-02T21:58:29.646Z,99207.33
2017-12-02T22:00:56.045Z,99196.03
2017-12-02T22:03:22.479Z,99181.73
2017-12-02T22:05:48.913Z,99167.00
2017-12-02T22:08:16.066Z,99174.11
2017-12-02T22:10:42.506Z,99176.95
2017-12-02T22:13:08.868Z,99174.96
2017-12-02T22:15:35.267Z,99180.97
2017-12-02T22:18:01.707Z,99183.15
2017-12-02T22:20:28.055Z,99180.09
2017-12-02T22:22:54.570Z,99177.80
2017-12-02T22:25:21.703Z,99182.47
2017-12-02T22:27:48.016Z,99179.67
2017-12-02T22:30:14.424Z,99182.72
2017-12-02T22:32:40.820Z,99197.97
2017-12-02T22:35:07.221Z,99170.24
2017-12-02T22:37:33.685Z,99177.23
2017-12-02T22:40:00.129Z,99166.94
2017-12-02T22:42:27.406Z,99174.18
2017-12-02T22:44:53.814Z,99173.76
2017-12-02T22:47:20.248Z,99173.50
2017-12-02T22:49:46.786Z,99169.08
2017-12-02T22:52:13.220Z,99168.69
2017-12-02T22:54:39.654Z,99168.83
2017-12-02T22:57:06.092Z,99147.02
2017-12-02T22:59:33.241Z,99143.92
2017-12-02T23:01:59.675Z,99129.16
2017-12-02T23:04:26.111Z,99147.29
2017-12-02T23:06:52.544Z,99146.50
2017-12-02T23:09:18.979Z,99152.36
2017-12-02T23:11:45.350Z,99154.13
2017-12-02T23:14:11.745Z,99148.11
2017-12-02T23:16:38.989Z,99135.13
2017-12-02T23:19:05.370Z,99117.05
2017-12-02T23:21:31.724Z,99115.72
2017-12-02T23:23:58.122Z,99121.08
2017-12-02T23:26:24.470Z,99132.45
2017-12-02T23:28:50.865Z,99127.89
2017-12-02T23:31:17.294Z,99123.04
2017-12-02T23:33:44.435Z,99126.66
2017-12-02T23:36:10.877Z,99131.08
2017-12-02T23:38:37.320Z,99128.94
2017-12-02T23:41:03.770Z,99132.03
2017-12-02T23:43:30.190Z,99131.36
2017-12-02T23:45:56.626Z,99124.11
2017-12-02T23:48:23.059Z,99135.64
2017-12-02T23:50:50.305Z,99123.73
2017-12-02T23:53:16.747Z,99134.97
2017-12-02T23:55:43.165Z,99125.46
2017-12-02T23:58:09.606Z,99111.70
